Charter Quote
Worldwide +1-877-727-2538 Call
Select Language Lang
SAFETY RELIABILITY EXPERIENCE

Private Jet Charter Services - Jiuzhaigou Huanglong (ZUJZ)

Paramount Business Jets offers private jet charter flights and luxury airliner charters to and from Jiuzhaigou Huanglong.

AIRPORT INFORMATION
ICAOZUJZ
LOCATIONJiuzhaigou, China
FACILITY TYPEAIRPORT

At Paramount Business Jets you can hire chartered private jets to and from Jiuzhaigou Huanglong with as little as 4 hours of notice. All flights booked via Paramount Business Jets are operated by certified direct air carriers that meet and exceed the FAA part 135 and 121 protocol or a foreign equivalent safety authority. Furthermore, Paramount Business Jets subscribes to ARGUS for their third party safety checks of operators, aircraft, and crews prior each and every flight to and from Jiuzhaigou Huanglong and worldwide.

  • Quote a trip using Jiuzhaigou Huanglong or call us 24/7 - 365 days a year at +1-877-727-2538.
Questions? Call +1-877-727-2538

METAR Weather Data at Jiuzhaigou Huanglong, ZUJZ

STATIONZUJZ
OBSERVEDTue Aug 8, 23:00 UTC
NOWMon Jul 22, 09:41 UTC
AGE17098:41 hr ago
WINDNNW at 2 mph
VISIBILITY16 miles
CLOUDSmostly cloudy
TEMP45°F (7°C)
DEWPT43°F (6°C)
HUMIDITY93%
BAROMETER1030 hPa (30.42 in Hg)
METARZUJZ 082300Z 33001MPS 9999 BKN020 07/06 Q1030 NOSIG

Call us on +1-877-727-2538 (24 Hours) to Hire a Private Jet or Get a Quick Quote.

Find Airports Near any Location

Processing
...